sensor_id;sensor_type;location;lat;lon;timestamp;P1;durP1;ratioP1;P2;durP2;ratioP2
63772;SDS011;49919;53.612;55.898;2022-09-11T00:00:36;1.33;;;1.23;;
63772;SDS011;49919;53.612;55.898;2022-09-11T00:02:07;1.25;;;1.10;;
63772;SDS011;49919;53.612;55.898;2022-09-11T00:03:38;2.50;;;1.45;;
63772;SDS011;49919;53.612;55.898;2022-09-11T00:05:11;1.35;;;1.25;;
63772;SDS011;49919;53.612;55.898;2022-09-11T00:06:42;2.38;;;1.27;;
63772;SDS011;49919;53.612;55.898;2022-09-11T00:08:14;1.40;;;1.30;;
63772;SDS011;49919;53.612;55.898;2022-09-11T00:09:47;1.40;;;1.40;;
63772;SDS011;49919;53.612;55.898;2022-09-11T00:11:19;1.95;;;1.45;;
63772;SDS011;49919;53.612;55.898;2022-09-11T00:12:51;15.10;;;1.75;;
63772;SDS011;49919;53.612;55.898;2022-09-11T00:14:21;3.10;;;1.40;;
63772;SDS011;49919;53.612;55.898;2022-09-11T00:15:52;1.67;;;1.40;;
63772;SDS011;49919;53.612;55.898;2022-09-11T00:17:23;1.70;;;1.27;;
63772;SDS011;49919;53.612;55.898;2022-09-11T00:18:56;2.67;;;1.48;;
63772;SDS011;49919;53.612;55.898;2022-09-11T00:20:28;1.15;;;1.15;;
63772;SDS011;49919;53.612;55.898;2022-09-11T00:21:59;1.55;;;1.45;;
63772;SDS011;49919;53.612;55.898;2022-09-11T00:23:30;1.45;;;1.35;;
63772;SDS011;49919;53.612;55.898;2022-09-11T00:25:01;1.92;;;1.38;;
63772;SDS011;49919;53.612;55.898;2022-09-11T00:26:34;1.33;;;1.33;;
63772;SDS011;49919;53.612;55.898;2022-09-11T00:28:05;3.65;;;1.30;;
63772;SDS011;49919;53.612;55.898;2022-09-11T00:29:37;2.08;;;1.35;;
63772;SDS011;49919;53.612;55.898;2022-09-11T00:31:12;3.63;;;1.42;;
63772;SDS011;49919;53.612;55.898;2022-09-11T00:32:45;1.90;;;1.50;;
63772;SDS011;49919;53.612;55.898;2022-09-11T00:34:18;2.58;;;1.20;;
63772;SDS011;49919;53.612;55.898;2022-09-11T00:35:59;2.75;;;1.42;;
63772;SDS011;49919;53.612;55.898;2022-09-11T00:37:33;1.65;;;1.55;;
63772;SDS011;49919;53.612;55.898;2022-09-11T00:39:04;1.33;;;1.23;;
63772;SDS011;49919;53.612;55.898;2022-09-11T00:40:45;1.45;;;1.35;;
63772;SDS011;49919;53.612;55.898;2022-09-11T00:42:16;1.50;;;1.40;;
63772;SDS011;49919;53.612;55.898;2022-09-11T00:44:07;1.92;;;1.73;;
63772;SDS011;49919;53.612;55.898;2022-09-11T00:45:59;1.40;;;1.30;;
63772;SDS011;49919;53.612;55.898;2022-09-11T00:47:33;1.40;;;1.30;;
63772;SDS011;49919;53.612;55.898;2022-09-11T00:50:48;1.88;;;1.38;;
63772;SDS011;49919;53.612;55.898;2022-09-11T00:53:52;1.63;;;1.40;;
63772;SDS011;49919;53.612;55.898;2022-09-11T00:55:27;1.48;;;1.38;;
63772;SDS011;49919;53.612;55.898;2022-09-11T00:57:04;1.60;;;1.50;;
63772;SDS011;49919;53.612;55.898;2022-09-11T00:58:38;1.70;;;1.60;;
63772;SDS011;49919;53.612;55.898;2022-09-11T01:00:13;1.60;;;1.50;;
63772;SDS011;49919;53.612;55.898;2022-09-11T01:01:44;3.10;;;1.75;;
63772;SDS011;49919;53.612;55.898;2022-09-11T01:03:15;1.48;;;1.30;;
63772;SDS011;49919;53.612;55.898;2022-09-11T01:04:46;1.92;;;1.40;;
63772;SDS011;49919;53.612;55.898;2022-09-11T01:06:18;1.48;;;1.38;;
63772;SDS011;49919;53.612;55.898;2022-09-11T01:07:50;1.65;;;1.55;;
63772;SDS011;49919;53.612;55.898;2022-09-11T01:09:24;2.17;;;1.58;;
63772;SDS011;49919;53.612;55.898;2022-09-11T01:12:36;2.38;;;1.45;;
63772;SDS011;49919;53.612;55.898;2022-09-11T01:18:18;1.70;;;1.60;;
63772;SDS011;49919;53.612;55.898;2022-09-11T01:30:49;2.15;;;1.60;;
63772;SDS011;49919;53.612;55.898;2022-09-11T01:34:02;1.90;;;1.80;;
63772;SDS011;49919;53.612;55.898;2022-09-11T01:37:47;7.10;;;2.30;;
63772;SDS011;49919;53.612;55.898;2022-09-11T01:39:27;3.58;;;2.00;;
63772;SDS011;49919;53.612;55.898;2022-09-11T01:41:07;3.03;;;1.90;;
63772;SDS011;49919;53.612;55.898;2022-09-11T01:42:43;3.05;;;1.90;;
63772;SDS011;49919;53.612;55.898;2022-09-11T01:44:29;1.88;;;1.73;;
63772;SDS011;49919;53.612;55.898;2022-09-11T01:46:03;2.20;;;1.73;;
63772;SDS011;49919;53.612;55.898;2022-09-11T01:47:36;4.50;;;1.80;;
63772;SDS011;49919;53.612;55.898;2022-09-11T01:49:16;3.17;;;1.88;;
63772;SDS011;49919;53.612;55.898;2022-09-11T01:50:51;4.63;;;1.90;;
63772;SDS011;49919;53.612;55.898;2022-09-11T01:52:28;2.72;;;2.00;;
63772;SDS011;49919;53.612;55.898;2022-09-11T01:54:03;4.95;;;2.10;;
63772;SDS011;49919;53.612;55.898;2022-09-11T01:55:45;2.95;;;2.72;;
63772;SDS011;49919;53.612;55.898;2022-09-11T01:59:09;2.95;;;2.50;;
63772;SDS011;49919;53.612;55.898;2022-09-11T02:00:45;3.83;;;2.78;;
63772;SDS011;49919;53.612;55.898;2022-09-11T02:02:20;6.05;;;2.80;;
63772;SDS011;49919;53.612;55.898;2022-09-11T02:05:45;3.20;;;2.60;;
63772;SDS011;49919;53.612;55.898;2022-09-11T02:07:26;6.63;;;3.05;;
63772;SDS011;49919;53.612;55.898;2022-09-11T02:09:05;5.95;;;3.50;;
63772;SDS011;49919;53.612;55.898;2022-09-11T02:10:53;3.80;;;3.40;;
63772;SDS011;49919;53.612;55.898;2022-09-11T02:12:29;5.15;;;3.00;;
63772;SDS011;49919;53.612;55.898;2022-09-11T02:16:00;6.63;;;3.08;;
63772;SDS011;49919;53.612;55.898;2022-09-11T02:19:10;3.15;;;2.65;;
63772;SDS011;49919;53.612;55.898;2022-09-11T02:20:44;5.40;;;3.70;;
63772;SDS011;49919;53.612;55.898;2022-09-11T02:22:17;6.55;;;3.53;;
63772;SDS011;49919;53.612;55.898;2022-09-11T02:23:47;10.40;;;3.55;;
63772;SDS011;49919;53.612;55.898;2022-09-11T02:25:19;7.65;;;3.58;;
63772;SDS011;49919;53.612;55.898;2022-09-11T02:26:51;4.93;;;2.90;;
63772;SDS011;49919;53.612;55.898;2022-09-11T02:28:27;5.07;;;3.03;;
63772;SDS011;49919;53.612;55.898;2022-09-11T02:29:58;3.30;;;3.08;;
63772;SDS011;49919;53.612;55.898;2022-09-11T02:31:31;4.60;;;3.55;;
63772;SDS011;49919;53.612;55.898;2022-09-11T02:33:03;6.88;;;3.20;;
63772;SDS011;49919;53.612;55.898;2022-09-11T02:34:38;3.58;;;3.15;;
63772;SDS011;49919;53.612;55.898;2022-09-11T02:38:17;7.40;;;3.28;;
63772;SDS011;49919;53.612;55.898;2022-09-11T02:44:29;5.00;;;2.70;;
63772;SDS011;49919;53.612;55.898;2022-09-11T02:48:55;3.50;;;2.53;;
63772;SDS011;49919;53.612;55.898;2022-09-11T02:50:47;3.35;;;3.05;;
63772;SDS011;49919;53.612;55.898;2022-09-11T02:52:42;3.58;;;3.17;;
63772;SDS011;49919;53.612;55.898;2022-09-11T02:54:22;3.30;;;2.80;;
63772;SDS011;49919;53.612;55.898;2022-09-11T02:56:14;3.40;;;3.03;;
63772;SDS011;49919;53.612;55.898;2022-09-11T02:58:00;4.72;;;2.92;;
63772;SDS011;49919;53.612;55.898;2022-09-11T02:59:38;3.90;;;2.72;;
63772;SDS011;49919;53.612;55.898;2022-09-11T03:01:15;3.20;;;2.60;;
63772;SDS011;49919;53.612;55.898;2022-09-11T03:02:46;4.53;;;2.83;;
63772;SDS011;49919;53.612;55.898;2022-09-11T03:04:18;2.70;;;2.50;;
63772;SDS011;49919;53.612;55.898;2022-09-11T03:05:52;2.75;;;2.42;;
63772;SDS011;49919;53.612;55.898;2022-09-11T03:07:23;3.10;;;2.72;;
63772;SDS011;49919;53.612;55.898;2022-09-11T03:08:55;2.92;;;2.60;;
63772;SDS011;49919;53.612;55.898;2022-09-11T03:10:26;7.15;;;3.00;;
63772;SDS011;49919;53.612;55.898;2022-09-11T03:11:57;4.10;;;2.88;;
63772;SDS011;49919;53.612;55.898;2022-09-11T03:13:28;3.75;;;2.97;;
63772;SDS011;49919;53.612;55.898;2022-09-11T03:15:01;8.48;;;4.57;;
63772;SDS011;49919;53.612;55.898;2022-09-11T03:16:32;3.95;;;3.60;;
63772;SDS011;49919;53.612;55.898;2022-09-11T03:18:03;5.15;;;3.50;;
63772;SDS011;49919;53.612;55.898;2022-09-11T03:19:34;3.67;;;3.38;;
63772;SDS011;49919;53.612;55.898;2022-09-11T03:21:05;3.15;;;2.85;;
63772;SDS011;49919;53.612;55.898;2022-09-11T03:22:36;4.20;;;2.90;;
63772;SDS011;49919;53.612;55.898;2022-09-11T03:24:08;6.32;;;2.70;;
63772;SDS011;49919;53.612;55.898;2022-09-11T03:25:40;3.38;;;2.80;;
63772;SDS011;49919;53.612;55.898;2022-09-11T03:27:12;3.40;;;2.70;;
63772;SDS011;49919;53.612;55.898;2022-09-11T03:28:44;3.33;;;2.40;;
63772;SDS011;49919;53.612;55.898;2022-09-11T03:30:18;3.80;;;2.20;;
63772;SDS011;49919;53.612;55.898;2022-09-11T03:31:52;2.60;;;2.40;;
63772;SDS011;49919;53.612;55.898;2022-09-11T03:33:23;2.30;;;2.10;;
63772;SDS011;49919;53.612;55.898;2022-09-11T03:34:54;3.20;;;2.10;;
63772;SDS011;49919;53.612;55.898;2022-09-11T03:36:25;2.42;;;2.22;;
63772;SDS011;49919;53.612;55.898;2022-09-11T03:37:57;2.90;;;2.30;;
63772;SDS011;49919;53.612;55.898;2022-09-11T03:39:29;2.95;;;2.30;;
63772;SDS011;49919;53.612;55.898;2022-09-11T03:41:03;2.55;;;2.35;;
63772;SDS011;49919;53.612;55.898;2022-09-11T03:42:36;2.10;;;2.00;;
63772;SDS011;49919;53.612;55.898;2022-09-11T03:44:07;2.30;;;2.10;;
63772;SDS011;49919;53.612;55.898;2022-09-11T03:45:38;2.78;;;2.33;;
63772;SDS011;49919;53.612;55.898;2022-09-11T03:47:09;5.43;;;2.13;;
63772;SDS011;49919;53.612;55.898;2022-09-11T03:48:41;2.47;;;2.25;;
63772;SDS011;49919;53.612;55.898;2022-09-11T03:50:12;5.95;;;2.33;;
63772;SDS011;49919;53.612;55.898;2022-09-11T03:51:42;2.45;;;2.25;;
63772;SDS011;49919;53.612;55.898;2022-09-11T03:53:14;2.78;;;2.17;;
63772;SDS011;49919;53.612;55.898;2022-09-11T03:54:45;2.28;;;1.92;;
63772;SDS011;49919;53.612;55.898;2022-09-11T03:56:17;2.25;;;2.05;;
63772;SDS011;49919;53.612;55.898;2022-09-11T03:57:51;2.88;;;2.33;;
63772;SDS011;49919;53.612;55.898;2022-09-11T03:59:22;7.47;;;2.10;;
63772;SDS011;49919;53.612;55.898;2022-09-11T04:00:53;3.45;;;2.10;;
63772;SDS011;49919;53.612;55.898;2022-09-11T04:02:25;2.35;;;1.95;;
63772;SDS011;49919;53.612;55.898;2022-09-11T04:03:57;3.75;;;2.20;;
63772;SDS011;49919;53.612;55.898;2022-09-11T04:05:37;2.28;;;2.10;;
63772;SDS011;49919;53.612;55.898;2022-09-11T04:07:08;1.90;;;1.80;;
63772;SDS011;49919;53.612;55.898;2022-09-11T04:08:39;2.00;;;1.90;;
63772;SDS011;49919;53.612;55.898;2022-09-11T04:10:12;2.30;;;2.10;;
63772;SDS011;49919;53.612;55.898;2022-09-11T04:11:43;3.70;;;2.28;;
63772;SDS011;49919;53.612;55.898;2022-09-11T04:13:31;2.15;;;1.98;;
63772;SDS011;49919;53.612;55.898;2022-09-11T04:15:05;3.58;;;2.00;;
63772;SDS011;49919;53.612;55.898;2022-09-11T04:16:37;1.77;;;1.67;;
63772;SDS011;49919;53.612;55.898;2022-09-11T04:18:08;2.00;;;1.80;;
63772;SDS011;49919;53.612;55.898;2022-09-11T04:19:39;1.70;;;1.60;;
63772;SDS011;49919;53.612;55.898;2022-09-11T04:21:11;2.00;;;1.85;;
63772;SDS011;49919;53.612;55.898;2022-09-11T04:22:44;3.58;;;1.73;;
63772;SDS011;49919;53.612;55.898;2022-09-11T04:24:16;2.97;;;1.98;;
63772;SDS011;49919;53.612;55.898;2022-09-11T04:25:49;2.00;;;1.80;;
63772;SDS011;49919;53.612;55.898;2022-09-11T04:27:20;2.38;;;2.10;;
63772;SDS011;49919;53.612;55.898;2022-09-11T04:28:52;1.95;;;1.73;;
63772;SDS011;49919;53.612;55.898;2022-09-11T04:30:23;3.45;;;1.70;;
63772;SDS011;49919;53.612;55.898;2022-09-11T04:31:55;2.08;;;1.63;;
63772;SDS011;49919;53.612;55.898;2022-09-11T04:33:30;1.60;;;1.50;;
63772;SDS011;49919;53.612;55.898;2022-09-11T04:35:01;1.80;;;1.70;;
63772;SDS011;49919;53.612;55.898;2022-09-11T04:36:39;2.03;;;1.90;;
63772;SDS011;49919;53.612;55.898;2022-09-11T04:38:13;5.78;;;2.05;;
63772;SDS011;49919;53.612;55.898;2022-09-11T04:39:45;2.65;;;1.90;;
63772;SDS011;49919;53.612;55.898;2022-09-11T04:41:19;3.67;;;1.40;;
63772;SDS011;49919;53.612;55.898;2022-09-11T04:42:51;3.45;;;1.40;;
63772;SDS011;49919;53.612;55.898;2022-09-11T04:44:23;2.47;;;1.70;;
63772;SDS011;49919;53.612;55.898;2022-09-11T04:46:01;6.35;;;1.80;;
63772;SDS011;49919;53.612;55.898;2022-09-11T04:47:34;1.45;;;1.35;;
63772;SDS011;49919;53.612;55.898;2022-09-11T04:49:05;2.22;;;2.03;;
63772;SDS011;49919;53.612;55.898;2022-09-11T04:50:38;5.07;;;4.55;;
63772;SDS011;49919;53.612;55.898;2022-09-11T04:52:37;3.13;;;2.50;;
63772;SDS011;49919;53.612;55.898;2022-09-11T04:54:14;2.22;;;2.03;;
63772;SDS011;49919;53.612;55.898;2022-09-11T04:55:48;7.40;;;6.70;;
63772;SDS011;49919;53.612;55.898;2022-09-11T04:57:20;6.35;;;5.70;;
63772;SDS011;49919;53.612;55.898;2022-09-11T04:58:52;14.57;;;10.63;;
63772;SDS011;49919;53.612;55.898;2022-09-11T05:00:27;3.72;;;3.42;;
63772;SDS011;49919;53.612;55.898;2022-09-11T05:01:59;3.85;;;1.90;;
63772;SDS011;49919;53.612;55.898;2022-09-11T05:03:31;1.70;;;1.60;;
63772;SDS011;49919;53.612;55.898;2022-09-11T05:05:02;1.90;;;1.70;;
63772;SDS011;49919;53.612;55.898;2022-09-11T05:06:35;1.90;;;1.60;;
63772;SDS011;49919;53.612;55.898;2022-09-11T05:08:10;5.90;;;2.15;;
63772;SDS011;49919;53.612;55.898;2022-09-11T05:09:41;1.65;;;1.50;;
63772;SDS011;49919;53.612;55.898;2022-09-11T05:11:14;2.38;;;1.60;;
63772;SDS011;49919;53.612;55.898;2022-09-11T05:12:46;7.15;;;1.83;;
63772;SDS011;49919;53.612;55.898;2022-09-11T05:14:17;3.20;;;2.90;;
63772;SDS011;49919;53.612;55.898;2022-09-11T05:15:50;2.10;;;1.55;;
63772;SDS011;49919;53.612;55.898;2022-09-11T05:17:21;1.70;;;1.60;;
63772;SDS011;49919;53.612;55.898;2022-09-11T05:18:52;1.35;;;1.25;;
63772;SDS011;49919;53.612;55.898;2022-09-11T05:20:25;3.58;;;1.80;;
63772;SDS011;49919;53.612;55.898;2022-09-11T05:21:56;1.83;;;1.60;;
63772;SDS011;49919;53.612;55.898;2022-09-11T05:23:28;2.45;;;1.10;;
63772;SDS011;49919;53.612;55.898;2022-09-11T05:25:02;1.50;;;1.40;;
63772;SDS011;49919;53.612;55.898;2022-09-11T05:26:34;1.63;;;1.42;;
63772;SDS011;49919;53.612;55.898;2022-09-11T05:28:07;2.90;;;1.48;;
63772;SDS011;49919;53.612;55.898;2022-09-11T05:29:38;1.40;;;1.30;;
63772;SDS011;49919;53.612;55.898;2022-09-11T05:31:15;3.33;;;1.10;;
63772;SDS011;49919;53.612;55.898;2022-09-11T05:32:51;1.50;;;1.40;;
63772;SDS011;49919;53.612;55.898;2022-09-11T05:34:25;1.42;;;1.00;;
63772;SDS011;49919;53.612;55.898;2022-09-11T05:36:02;0.90;;;0.90;;
63772;SDS011;49919;53.612;55.898;2022-09-11T05:37:35;0.95;;;0.95;;
63772;SDS011;49919;53.612;55.898;2022-09-11T05:39:06;3.17;;;1.10;;
63772;SDS011;49919;53.612;55.898;2022-09-11T05:40:42;2.83;;;1.90;;
63772;SDS011;49919;53.612;55.898;2022-09-11T05:42:14;7.85;;;1.75;;
63772;SDS011;49919;53.612;55.898;2022-09-11T05:43:49;2.65;;;1.15;;
63772;SDS011;49919;53.612;55.898;2022-09-11T05:45:21;2.60;;;1.20;;
63772;SDS011;49919;53.612;55.898;2022-09-11T05:46:52;1.52;;;1.38;;
63772;SDS011;49919;53.612;55.898;2022-09-11T05:48:27;2.85;;;1.08;;
63772;SDS011;49919;53.612;55.898;2022-09-11T05:50:00;4.60;;;1.50;;
63772;SDS011;49919;53.612;55.898;2022-09-11T05:51:33;1.17;;;1.17;;
63772;SDS011;49919;53.612;55.898;2022-09-11T05:53:07;1.95;;;1.30;;
63772;SDS011;49919;53.612;55.898;2022-09-11T05:54:39;1.20;;;1.10;;
63772;SDS011;49919;53.612;55.898;2022-09-11T05:56:15;2.45;;;1.40;;
63772;SDS011;49919;53.612;55.898;2022-09-11T05:57:50;2.08;;;1.00;;
63772;SDS011;49919;53.612;55.898;2022-09-11T05:59:22;1.90;;;1.27;;
63772;SDS011;49919;53.612;55.898;2022-09-11T06:01:00;2.60;;;1.67;;
63772;SDS011;49919;53.612;55.898;2022-09-11T06:02:33;1.30;;;1.20;;
63772;SDS011;49919;53.612;55.898;2022-09-11T06:04:07;1.30;;;1.20;;
63772;SDS011;49919;53.612;55.898;2022-09-11T06:05:39;3.95;;;1.45;;
63772;SDS011;49919;53.612;55.898;2022-09-11T06:07:11;1.60;;;1.50;;
63772;SDS011;49919;53.612;55.898;2022-09-11T06:08:44;1.63;;;1.42;;
63772;SDS011;49919;53.612;55.898;2022-09-11T06:10:16;1.92;;;1.40;;
63772;SDS011;49919;53.612;55.898;2022-09-11T06:11:47;2.72;;;1.40;;
63772;SDS011;49919;53.612;55.898;2022-09-11T06:13:18;4.47;;;1.50;;
63772;SDS011;49919;53.612;55.898;2022-09-11T06:14:51;4.38;;;1.60;;
63772;SDS011;49919;53.612;55.898;2022-09-11T06:16:22;4.47;;;1.52;;
63772;SDS011;49919;53.612;55.898;2022-09-11T06:17:55;1.83;;;1.50;;
63772;SDS011;49919;53.612;55.898;2022-09-11T06:19:25;5.65;;;1.85;;
63772;SDS011;49919;53.612;55.898;2022-09-11T06:20:57;2.15;;;1.45;;
63772;SDS011;49919;53.612;55.898;2022-09-11T06:22:32;1.80;;;1.70;;
63772;SDS011;49919;53.612;55.898;2022-09-11T06:24:05;1.63;;;1.52;;
63772;SDS011;49919;53.612;55.898;2022-09-11T06:25:38;1.80;;;1.60;;
63772;SDS011;49919;53.612;55.898;2022-09-11T06:27:09;1.23;;;1.23;;
63772;SDS011;49919;53.612;55.898;2022-09-11T06:28:44;2.22;;;1.20;;
63772;SDS011;49919;53.612;55.898;2022-09-11T06:30:17;1.40;;;0.95;;
63772;SDS011;49919;53.612;55.898;2022-09-11T06:31:50;2.97;;;1.00;;
63772;SDS011;49919;53.612;55.898;2022-09-11T06:33:23;3.10;;;1.08;;
63772;SDS011;49919;53.612;55.898;2022-09-11T06:34:55;1.85;;;0.93;;
63772;SDS011;49919;53.612;55.898;2022-09-11T06:36:26;1.27;;;1.20;;
63772;SDS011;49919;53.612;55.898;2022-09-11T06:37:58;2.13;;;1.30;;
63772;SDS011;49919;53.612;55.898;2022-09-11T06:39:29;1.20;;;1.10;;
63772;SDS011;49919;53.612;55.898;2022-09-11T06:41:02;1.30;;;1.10;;
63772;SDS011;49919;53.612;55.898;2022-09-11T06:42:38;1.85;;;1.40;;
63772;SDS011;49919;53.612;55.898;2022-09-11T06:44:09;1.10;;;1.00;;
63772;SDS011;49919;53.612;55.898;2022-09-11T06:45:44;3.05;;;1.20;;
63772;SDS011;49919;53.612;55.898;2022-09-11T06:47:19;4.00;;;1.38;;
63772;SDS011;49919;53.612;55.898;2022-09-11T06:48:50;0.90;;;0.90;;
63772;SDS011;49919;53.612;55.898;2022-09-11T06:50:27;1.40;;;1.30;;
63772;SDS011;49919;53.612;55.898;2022-09-11T06:52:05;1.87;;;1.77;;
63772;SDS011;49919;53.612;55.898;2022-09-11T06:53:37;2.10;;;2.00;;
63772;SDS011;49919;53.612;55.898;2022-09-11T06:55:14;2.00;;;1.90;;
63772;SDS011;49919;53.612;55.898;2022-09-11T06:56:53;2.28;;;2.13;;
63772;SDS011;49919;53.612;55.898;2022-09-11T06:58:25;2.10;;;2.00;;
63772;SDS011;49919;53.612;55.898;2022-09-11T06:59:56;2.30;;;1.85;;
63772;SDS011;49919;53.612;55.898;2022-09-11T07:01:27;1.88;;;1.77;;
63772;SDS011;49919;53.612;55.898;2022-09-11T07:03:03;1.50;;;1.40;;
63772;SDS011;49919;53.612;55.898;2022-09-11T07:04:34;0.90;;;0.85;;
63772;SDS011;49919;53.612;55.898;2022-09-11T07:06:05;3.95;;;1.20;;
63772;SDS011;49919;53.612;55.898;2022-09-11T07:07:37;1.13;;;1.02;;
63772;SDS011;49919;53.612;55.898;2022-09-11T07:09:09;1.40;;;1.30;;
63772;SDS011;49919;53.612;55.898;2022-09-11T07:10:47;1.77;;;1.67;;
63772;SDS011;49919;53.612;55.898;2022-09-11T07:12:18;8.02;;;2.00;;
63772;SDS011;49919;53.612;55.898;2022-09-11T07:13:53;4.90;;;0.95;;
63772;SDS011;49919;53.612;55.898;2022-09-11T07:15:24;1.20;;;1.10;;
63772;SDS011;49919;53.612;55.898;2022-09-11T07:16:55;5.85;;;1.10;;
63772;SDS011;49919;53.612;55.898;2022-09-11T07:18:30;1.65;;;1.10;;
63772;SDS011;49919;53.612;55.898;2022-09-11T07:20:14;1.20;;;1.00;;
63772;SDS011;49919;53.612;55.898;2022-09-11T07:21:47;1.50;;;1.30;;
63772;SDS011;49919;53.612;55.898;2022-09-11T07:23:18;1.38;;;1.27;;
63772;SDS011;49919;53.612;55.898;2022-09-11T07:24:49;3.03;;;1.20;;
63772;SDS011;49919;53.612;55.898;2022-09-11T07:26:23;3.10;;;1.60;;
63772;SDS011;49919;53.612;55.898;2022-09-11T07:27:59;6.25;;;1.48;;
63772;SDS011;49919;53.612;55.898;2022-09-11T07:29:31;4.45;;;1.88;;
63772;SDS011;49919;53.612;55.898;2022-09-11T07:31:06;3.70;;;1.45;;
63772;SDS011;49919;53.612;55.898;2022-09-11T07:32:43;4.05;;;1.33;;
63772;SDS011;49919;53.612;55.898;2022-09-11T07:34:15;2.40;;;1.17;;
63772;SDS011;49919;53.612;55.898;2022-09-11T07:35:47;1.88;;;0.98;;
63772;SDS011;49919;53.612;55.898;2022-09-11T07:37:21;3.72;;;1.10;;
63772;SDS011;49919;53.612;55.898;2022-09-11T07:38:52;2.97;;;1.20;;
63772;SDS011;49919;53.612;55.898;2022-09-11T07:40:31;1.38;;;1.08;;
63772;SDS011;49919;53.612;55.898;2022-09-11T07:42:04;1.52;;;1.10;;
63772;SDS011;49919;53.612;55.898;2022-09-11T07:43:39;5.10;;;1.05;;
63772;SDS011;49919;53.612;55.898;2022-09-11T07:45:11;1.75;;;1.10;;
63772;SDS011;49919;53.612;55.898;2022-09-11T07:46:42;3.05;;;1.23;;
63772;SDS011;49919;53.612;55.898;2022-09-11T07:48:15;2.47;;;1.70;;
63772;SDS011;49919;53.612;55.898;2022-09-11T07:49:46;2.08;;;1.20;;
63772;SDS011;49919;53.612;55.898;2022-09-11T07:51:18;2.53;;;1.27;;
63772;SDS011;49919;53.612;55.898;2022-09-11T07:52:50;2.53;;;1.20;;
63772;SDS011;49919;53.612;55.898;2022-09-11T07:54:21;1.20;;;1.10;;
63772;SDS011;49919;53.612;55.898;2022-09-11T07:55:52;4.68;;;1.00;;
63772;SDS011;49919;53.612;55.898;2022-09-11T07:57:24;1.38;;;0.98;;
63772;SDS011;49919;53.612;55.898;2022-09-11T07:58:56;0.98;;;0.93;;
63772;SDS011;49919;53.612;55.898;2022-09-11T08:00:27;2.15;;;1.10;;
63772;SDS011;49919;53.612;55.898;2022-09-11T08:02:08;4.50;;;0.93;;
63772;SDS011;49919;53.612;55.898;2022-09-11T08:03:41;3.25;;;0.93;;
63772;SDS011;49919;53.612;55.898;2022-09-11T08:05:13;0.98;;;0.90;;
63772;SDS011;49919;53.612;55.898;2022-09-11T08:06:44;1.13;;;0.80;;
63772;SDS011;49919;53.612;55.898;2022-09-11T08:08:26;1.05;;;0.95;;
63772;SDS011;49919;53.612;55.898;2022-09-11T08:09:58;1.30;;;1.23;;
63772;SDS011;49919;53.612;55.898;2022-09-11T08:11:30;1.10;;;1.00;;
63772;SDS011;49919;53.612;55.898;2022-09-11T08:13:03;0.93;;;0.93;;
63772;SDS011;49919;53.612;55.898;2022-09-11T08:14:36;1.35;;;1.25;;
63772;SDS011;49919;53.612;55.898;2022-09-11T08:16:17;0.75;;;0.75;;
63772;SDS011;49919;53.612;55.898;2022-09-11T08:17:54;3.60;;;0.70;;
63772;SDS011;49919;53.612;55.898;2022-09-11T08:19:27;1.58;;;0.70;;
63772;SDS011;49919;53.612;55.898;2022-09-11T08:21:05;1.52;;;0.85;;
63772;SDS011;49919;53.612;55.898;2022-09-11T08:22:38;0.40;;;0.40;;
63772;SDS011;49919;53.612;55.898;2022-09-11T08:24:15;1.05;;;0.60;;
63772;SDS011;49919;53.612;55.898;2022-09-11T08:25:48;1.13;;;0.90;;
63772;SDS011;49919;53.612;55.898;2022-09-11T08:27:20;2.45;;;0.88;;
63772;SDS011;49919;53.612;55.898;2022-09-11T08:28:52;2.90;;;0.75;;
63772;SDS011;49919;53.612;55.898;2022-09-11T08:30:24;1.17;;;0.88;;
63772;SDS011;49919;53.612;55.898;2022-09-11T08:31:56;5.97;;;1.50;;
63772;SDS011;49919;53.612;55.898;2022-09-11T08:33:27;0.80;;;0.80;;
63772;SDS011;49919;53.612;55.898;2022-09-11T08:34:59;0.80;;;0.80;;
63772;SDS011;49919;53.612;55.898;2022-09-11T08:36:30;0.80;;;0.80;;
63772;SDS011;49919;53.612;55.898;2022-09-11T08:38:01;0.80;;;0.80;;
63772;SDS011;49919;53.612;55.898;2022-09-11T08:39:32;1.00;;;0.88;;
63772;SDS011;49919;53.612;55.898;2022-09-11T08:42:42;2.75;;;1.10;;
63772;SDS011;49919;53.612;55.898;2022-09-11T08:45:49;0.70;;;0.70;;
63772;SDS011;49919;53.612;55.898;2022-09-11T08:47:26;1.20;;;1.08;;
63772;SDS011;49919;53.612;55.898;2022-09-11T08:50:49;0.63;;;0.63;;
63772;SDS011;49919;53.612;55.898;2022-09-11T08:52:20;0.63;;;0.63;;
63772;SDS011;49919;53.612;55.898;2022-09-11T08:53:52;2.05;;;0.90;;
63772;SDS011;49919;53.612;55.898;2022-09-11T08:55:29;0.70;;;0.70;;
63772;SDS011;49919;53.612;55.898;2022-09-11T08:57:20;1.58;;;1.23;;
63772;SDS011;49919;53.612;55.898;2022-09-11T09:16:01;5.38;;;4.53;;
63772;SDS011;49919;53.612;55.898;2022-09-11T09:17:47;1.92;;;1.83;;
63772;SDS011;49919;53.612;55.898;2022-09-11T09:19:28;4.15;;;3.75;;
63772;SDS011;49919;53.612;55.898;2022-09-11T09:23:02;2.22;;;1.77;;
63772;SDS011;49919;53.612;55.898;2022-09-11T09:25:05;3.20;;;1.33;;
63772;SDS011;49919;53.612;55.898;2022-09-11T09:26:38;1.67;;;1.20;;
63772;SDS011;49919;53.612;55.898;2022-09-11T09:29:54;4.50;;;1.45;;
63772;SDS011;49919;53.612;55.898;2022-09-11T09:31:31;1.20;;;1.10;;
63772;SDS011;49919;53.612;55.898;2022-09-11T09:34:45;8.98;;;1.20;;
63772;SDS011;49919;53.612;55.898;2022-09-11T09:37:53;1.30;;;1.13;;
63772;SDS011;49919;53.612;55.898;2022-09-11T09:39:24;3.17;;;1.25;;
63772;SDS011;49919;53.612;55.898;2022-09-11T09:43:01;0.70;;;0.70;;
63772;SDS011;49919;53.612;55.898;2022-09-11T09:46:23;6.20;;;1.30;;
63772;SDS011;49919;53.612;55.898;2022-09-11T09:48:06;1.85;;;1.30;;
63772;SDS011;49919;53.612;55.898;2022-09-11T09:49:39;1.23;;;1.10;;
63772;SDS011;49919;53.612;55.898;2022-09-11T09:51:11;1.33;;;1.10;;
63772;SDS011;49919;53.612;55.898;2022-09-11T09:52:43;1.48;;;1.33;;
63772;SDS011;49919;53.612;55.898;2022-09-11T09:54:16;1.25;;;1.20;;
63772;SDS011;49919;53.612;55.898;2022-09-11T09:55:52;8.88;;;1.55;;
63772;SDS011;49919;53.612;55.898;2022-09-11T09:57:25;0.98;;;0.98;;
63772;SDS011;49919;53.612;55.898;2022-09-11T10:00:38;1.65;;;0.98;;
63772;SDS011;49919;53.612;55.898;2022-09-11T10:02:10;2.08;;;0.77;;
63772;SDS011;49919;53.612;55.898;2022-09-11T10:03:41;0.68;;;0.68;;
63772;SDS011;49919;53.612;55.898;2022-09-11T10:05:23;2.67;;;0.88;;
63772;SDS011;49919;53.612;55.898;2022-09-11T10:07:12;2.35;;;1.10;;
63772;SDS011;49919;53.612;55.898;2022-09-11T10:08:48;1.13;;;1.00;;
63772;SDS011;49919;53.612;55.898;2022-09-11T10:10:27;1.77;;;1.20;;
63772;SDS011;49919;53.612;55.898;2022-09-11T10:12:05;1.38;;;1.27;;
63772;SDS011;49919;53.612;55.898;2022-09-11T10:13:42;4.85;;;1.58;;
63772;SDS011;49919;53.612;55.898;2022-09-11T10:15:23;3.55;;;1.80;;
63772;SDS011;49919;53.612;55.898;2022-09-11T10:16:55;1.80;;;1.20;;
63772;SDS011;49919;53.612;55.898;2022-09-11T10:21:53;0.90;;;0.90;;
63772;SDS011;49919;53.612;55.898;2022-09-11T10:23:50;8.27;;;1.02;;
63772;SDS011;49919;53.612;55.898;2022-09-11T10:25:26;4.60;;;1.27;;
63772;SDS011;49919;53.612;55.898;2022-09-11T10:26:59;4.45;;;1.60;;
63772;SDS011;49919;53.612;55.898;2022-09-11T10:28:32;4.05;;;1.95;;
63772;SDS011;49919;53.612;55.898;2022-09-11T10:30:03;1.88;;;1.77;;
63772;SDS011;49919;53.612;55.898;2022-09-11T10:31:37;1.83;;;1.58;;
63772;SDS011;49919;53.612;55.898;2022-09-11T10:35:10;5.15;;;1.65;;
63772;SDS011;49919;53.612;55.898;2022-09-11T10:36:41;1.88;;;1.40;;
63772;SDS011;49919;53.612;55.898;2022-09-11T10:38:28;2.00;;;1.80;;